sensor_id;sensor_type;location;lat;lon;timestamp;P1;durP1;ratioP1;P2;durP2;ratioP2
21675;SDS011;10999;51.332;9.458;2023-05-19T00:02:23;5.07;;;1.42;;
21675;SDS011;10999;51.332;9.458;2023-05-19T00:04:51;2.88;;;1.33;;
21675;SDS011;10999;51.332;9.458;2023-05-19T00:07:18;5.28;;;1.30;;
21675;SDS011;10999;51.332;9.458;2023-05-19T00:09:48;4.22;;;1.65;;
21675;SDS011;10999;51.332;9.458;2023-05-19T00:12:14;6.82;;;1.90;;
21675;SDS011;10999;51.332;9.458;2023-05-19T00:14:42;6.18;;;1.60;;
21675;SDS011;10999;51.332;9.458;2023-05-19T00:17:08;5.57;;;1.48;;
21675;SDS011;10999;51.332;9.458;2023-05-19T00:19:35;5.10;;;1.70;;
21675;SDS011;10999;51.332;9.458;2023-05-19T00:22:03;6.03;;;1.98;;
21675;SDS011;10999;51.332;9.458;2023-05-19T00:24:30;4.68;;;1.70;;
21675;SDS011;10999;51.332;9.458;2023-05-19T00:26:57;4.75;;;1.30;;
21675;SDS011;10999;51.332;9.458;2023-05-19T00:29:23;4.45;;;1.55;;
21675;SDS011;10999;51.332;9.458;2023-05-19T00:31:50;4.63;;;1.45;;
21675;SDS011;10999;51.332;9.458;2023-05-19T00:34:17;3.03;;;1.17;;
21675;SDS011;10999;51.332;9.458;2023-05-19T00:36:44;7.43;;;1.55;;
21675;SDS011;10999;51.332;9.458;2023-05-19T00:39:11;4.22;;;1.60;;
21675;SDS011;10999;51.332;9.458;2023-05-19T00:41:37;4.10;;;1.42;;
21675;SDS011;10999;51.332;9.458;2023-05-19T00:44:05;4.25;;;1.70;;
21675;SDS011;10999;51.332;9.458;2023-05-19T00:46:32;4.05;;;1.58;;
21675;SDS011;10999;51.332;9.458;2023-05-19T00:48:59;4.13;;;1.48;;
21675;SDS011;10999;51.332;9.458;2023-05-19T00:51:26;3.80;;;1.58;;
21675;SDS011;10999;51.332;9.458;2023-05-19T00:53:54;3.55;;;1.30;;
21675;SDS011;10999;51.332;9.458;2023-05-19T00:56:21;7.20;;;1.70;;
21675;SDS011;10999;51.332;9.458;2023-05-19T00:58:49;3.45;;;1.40;;
21675;SDS011;10999;51.332;9.458;2023-05-19T01:01:17;7.55;;;1.70;;
21675;SDS011;10999;51.332;9.458;2023-05-19T01:03:44;7.93;;;1.85;;
21675;SDS011;10999;51.332;9.458;2023-05-19T01:06:12;8.27;;;2.17;;
21675;SDS011;10999;51.332;9.458;2023-05-19T01:08:40;5.65;;;2.00;;
21675;SDS011;10999;51.332;9.458;2023-05-19T01:11:07;6.72;;;1.88;;
21675;SDS011;10999;51.332;9.458;2023-05-19T01:13:34;4.82;;;1.67;;
21675;SDS011;10999;51.332;9.458;2023-05-19T01:21:35;8.05;;;2.22;;
21675;SDS011;10999;51.332;9.458;2023-05-19T01:24:12;6.47;;;1.98;;
21675;SDS011;10999;51.332;9.458;2023-05-19T01:30:06;7.07;;;2.10;;
21675;SDS011;10999;51.332;9.458;2023-05-19T01:32:35;4.55;;;1.65;;
21675;SDS011;10999;51.332;9.458;2023-05-19T01:35:03;5.15;;;1.55;;
21675;SDS011;10999;51.332;9.458;2023-05-19T01:37:31;4.25;;;2.05;;
21675;SDS011;10999;51.332;9.458;2023-05-19T01:39:59;6.28;;;1.70;;
21675;SDS011;10999;51.332;9.458;2023-05-19T01:42:26;7.55;;;2.00;;
21675;SDS011;10999;51.332;9.458;2023-05-19T01:44:55;8.65;;;2.33;;
21675;SDS011;10999;51.332;9.458;2023-05-19T01:47:23;3.45;;;1.35;;
21675;SDS011;10999;51.332;9.458;2023-05-19T01:49:50;4.53;;;1.50;;
21675;SDS011;10999;51.332;9.458;2023-05-19T01:52:17;6.45;;;1.85;;
21675;SDS011;10999;51.332;9.458;2023-05-19T01:54:43;2.92;;;1.55;;
21675;SDS011;10999;51.332;9.458;2023-05-19T01:57:25;4.97;;;1.65;;
21675;SDS011;10999;51.332;9.458;2023-05-19T02:00:12;7.32;;;2.00;;
21675;SDS011;10999;51.332;9.458;2023-05-19T02:02:55;4.55;;;1.80;;
21675;SDS011;10999;51.332;9.458;2023-05-19T02:08:23;3.78;;;1.50;;
21675;SDS011;10999;51.332;9.458;2023-05-19T02:11:18;5.50;;;1.70;;
21675;SDS011;10999;51.332;9.458;2023-05-19T02:13:52;5.13;;;1.55;;
21675;SDS011;10999;51.332;9.458;2023-05-19T02:16:26;6.85;;;1.92;;
21675;SDS011;10999;51.332;9.458;2023-05-19T02:18:54;6.05;;;1.30;;
21675;SDS011;10999;51.332;9.458;2023-05-19T02:21:21;6.43;;;1.90;;
21675;SDS011;10999;51.332;9.458;2023-05-19T02:23:49;5.00;;;1.58;;
21675;SDS011;10999;51.332;9.458;2023-05-19T02:26:16;4.57;;;1.70;;
21675;SDS011;10999;51.332;9.458;2023-05-19T02:28:42;7.70;;;2.03;;
21675;SDS011;10999;51.332;9.458;2023-05-19T02:31:09;5.43;;;1.48;;
21675;SDS011;10999;51.332;9.458;2023-05-19T02:33:36;3.88;;;1.42;;
21675;SDS011;10999;51.332;9.458;2023-05-19T02:36:03;5.40;;;1.67;;
21675;SDS011;10999;51.332;9.458;2023-05-19T02:38:30;5.95;;;1.50;;
21675;SDS011;10999;51.332;9.458;2023-05-19T02:40:57;7.25;;;2.20;;
21675;SDS011;10999;51.332;9.458;2023-05-19T02:43:24;4.93;;;1.80;;
21675;SDS011;10999;51.332;9.458;2023-05-19T02:45:51;5.43;;;1.52;;
21675;SDS011;10999;51.332;9.458;2023-05-19T02:48:17;6.20;;;1.95;;
21675;SDS011;10999;51.332;9.458;2023-05-19T02:50:44;5.50;;;2.20;;
21675;SDS011;10999;51.332;9.458;2023-05-19T02:53:11;4.65;;;1.60;;
21675;SDS011;10999;51.332;9.458;2023-05-19T02:55:38;2.90;;;1.40;;
21675;SDS011;10999;51.332;9.458;2023-05-19T02:58:04;4.57;;;1.60;;
21675;SDS011;10999;51.332;9.458;2023-05-19T03:00:31;4.88;;;1.70;;
21675;SDS011;10999;51.332;9.458;2023-05-19T03:02:58;4.78;;;1.30;;
21675;SDS011;10999;51.332;9.458;2023-05-19T03:05:28;6.22;;;1.60;;
21675;SDS011;10999;51.332;9.458;2023-05-19T03:07:57;7.57;;;1.83;;
21675;SDS011;10999;51.332;9.458;2023-05-19T03:10:24;7.05;;;2.03;;
21675;SDS011;10999;51.332;9.458;2023-05-19T03:12:51;4.35;;;1.60;;
21675;SDS011;10999;51.332;9.458;2023-05-19T03:15:18;3.88;;;1.45;;
21675;SDS011;10999;51.332;9.458;2023-05-19T03:17:45;4.03;;;1.85;;
21675;SDS011;10999;51.332;9.458;2023-05-19T03:20:12;6.60;;;1.90;;
21675;SDS011;10999;51.332;9.458;2023-05-19T03:22:41;4.22;;;1.50;;
21675;SDS011;10999;51.332;9.458;2023-05-19T03:25:08;6.53;;;1.60;;
21675;SDS011;10999;51.332;9.458;2023-05-19T03:27:35;8.32;;;2.25;;
21675;SDS011;10999;51.332;9.458;2023-05-19T03:30:02;3.67;;;1.50;;
21675;SDS011;10999;51.332;9.458;2023-05-19T03:32:31;6.90;;;2.03;;
21675;SDS011;10999;51.332;9.458;2023-05-19T03:34:59;5.45;;;1.85;;
21675;SDS011;10999;51.332;9.458;2023-05-19T03:37:25;5.90;;;1.52;;
21675;SDS011;10999;51.332;9.458;2023-05-19T03:39:52;4.85;;;1.42;;
21675;SDS011;10999;51.332;9.458;2023-05-19T03:42:19;3.50;;;1.65;;
21675;SDS011;10999;51.332;9.458;2023-05-19T03:44:46;3.88;;;1.58;;
21675;SDS011;10999;51.332;9.458;2023-05-19T03:47:13;6.28;;;2.10;;
21675;SDS011;10999;51.332;9.458;2023-05-19T03:49:40;4.10;;;1.77;;
21675;SDS011;10999;51.332;9.458;2023-05-19T03:52:07;5.82;;;1.95;;
21675;SDS011;10999;51.332;9.458;2023-05-19T03:54:34;5.53;;;2.30;;
21675;SDS011;10999;51.332;9.458;2023-05-19T03:57:02;6.10;;;2.00;;
21675;SDS011;10999;51.332;9.458;2023-05-19T03:59:30;5.03;;;1.85;;
21675;SDS011;10999;51.332;9.458;2023-05-19T04:01:57;4.65;;;1.65;;
21675;SDS011;10999;51.332;9.458;2023-05-19T04:04:24;4.50;;;2.33;;
21675;SDS011;10999;51.332;9.458;2023-05-19T04:06:51;5.72;;;1.77;;
21675;SDS011;10999;51.332;9.458;2023-05-19T04:09:18;5.28;;;1.88;;
21675;SDS011;10999;51.332;9.458;2023-05-19T04:11:45;5.78;;;2.00;;
21675;SDS011;10999;51.332;9.458;2023-05-19T04:14:12;7.93;;;2.10;;
21675;SDS011;10999;51.332;9.458;2023-05-19T04:16:38;5.35;;;1.80;;
21675;SDS011;10999;51.332;9.458;2023-05-19T04:19:06;8.05;;;2.00;;
21675;SDS011;10999;51.332;9.458;2023-05-19T04:21:33;8.80;;;3.38;;
21675;SDS011;10999;51.332;9.458;2023-05-19T04:24:00;7.70;;;2.72;;
21675;SDS011;10999;51.332;9.458;2023-05-19T04:26:27;7.63;;;3.10;;
21675;SDS011;10999;51.332;9.458;2023-05-19T04:28:56;7.85;;;2.80;;
21675;SDS011;10999;51.332;9.458;2023-05-19T04:31:23;7.55;;;3.63;;
21675;SDS011;10999;51.332;9.458;2023-05-19T04:33:50;10.10;;;3.40;;
21675;SDS011;10999;51.332;9.458;2023-05-19T04:36:18;9.82;;;2.47;;
21675;SDS011;10999;51.332;9.458;2023-05-19T04:38:46;5.55;;;1.65;;
21675;SDS011;10999;51.332;9.458;2023-05-19T04:41:13;6.57;;;2.13;;
21675;SDS011;10999;51.332;9.458;2023-05-19T04:43:41;7.43;;;2.40;;
21675;SDS011;10999;51.332;9.458;2023-05-19T04:46:10;5.18;;;2.10;;
21675;SDS011;10999;51.332;9.458;2023-05-19T04:48:39;4.88;;;1.67;;
21675;SDS011;10999;51.332;9.458;2023-05-19T04:51:06;5.38;;;1.85;;
21675;SDS011;10999;51.332;9.458;2023-05-19T04:53:33;5.70;;;2.28;;
21675;SDS011;10999;51.332;9.458;2023-05-19T04:56:00;4.57;;;1.85;;
21675;SDS011;10999;51.332;9.458;2023-05-19T04:58:27;6.90;;;2.22;;
21675;SDS011;10999;51.332;9.458;2023-05-19T05:00:55;3.50;;;1.85;;
21675;SDS011;10999;51.332;9.458;2023-05-19T05:03:23;4.55;;;2.10;;
21675;SDS011;10999;51.332;9.458;2023-05-19T05:05:50;6.07;;;1.98;;
21675;SDS011;10999;51.332;9.458;2023-05-19T05:08:17;5.50;;;2.28;;
21675;SDS011;10999;51.332;9.458;2023-05-19T05:13:20;7.07;;;2.35;;
21675;SDS011;10999;51.332;9.458;2023-05-19T05:15:48;5.80;;;1.83;;
21675;SDS011;10999;51.332;9.458;2023-05-19T05:18:17;4.65;;;2.00;;
21675;SDS011;10999;51.332;9.458;2023-05-19T05:20:44;8.80;;;2.15;;
21675;SDS011;10999;51.332;9.458;2023-05-19T05:23:12;5.25;;;2.17;;
21675;SDS011;10999;51.332;9.458;2023-05-19T05:25:42;7.15;;;2.50;;
21675;SDS011;10999;51.332;9.458;2023-05-19T05:28:09;5.90;;;1.90;;
21675;SDS011;10999;51.332;9.458;2023-05-19T05:30:36;5.28;;;1.92;;
21675;SDS011;10999;51.332;9.458;2023-05-19T05:33:03;5.07;;;2.25;;
21675;SDS011;10999;51.332;9.458;2023-05-19T05:35:30;6.38;;;2.20;;
21675;SDS011;10999;51.332;9.458;2023-05-19T05:37:57;8.15;;;1.77;;
21675;SDS011;10999;51.332;9.458;2023-05-19T05:40:24;5.22;;;1.58;;
21675;SDS011;10999;51.332;9.458;2023-05-19T05:42:52;8.75;;;2.63;;
21675;SDS011;10999;51.332;9.458;2023-05-19T05:45:23;4.85;;;2.05;;
21675;SDS011;10999;51.332;9.458;2023-05-19T05:47:51;6.68;;;1.90;;
21675;SDS011;10999;51.332;9.458;2023-05-19T05:50:18;5.35;;;1.83;;
21675;SDS011;10999;51.332;9.458;2023-05-19T05:52:45;4.80;;;1.77;;
21675;SDS011;10999;51.332;9.458;2023-05-19T05:55:14;5.43;;;2.22;;
21675;SDS011;10999;51.332;9.458;2023-05-19T05:57:42;4.47;;;1.80;;
21675;SDS011;10999;51.332;9.458;2023-05-19T06:00:09;7.30;;;1.77;;
21675;SDS011;10999;51.332;9.458;2023-05-19T06:02:41;6.03;;;1.67;;
21675;SDS011;10999;51.332;9.458;2023-05-19T06:05:11;6.75;;;1.65;;
21675;SDS011;10999;51.332;9.458;2023-05-19T06:07:39;7.13;;;2.03;;
21675;SDS011;10999;51.332;9.458;2023-05-19T06:10:06;6.20;;;2.00;;
21675;SDS011;10999;51.332;9.458;2023-05-19T06:12:34;5.72;;;1.50;;
21675;SDS011;10999;51.332;9.458;2023-05-19T06:15:05;8.40;;;1.90;;
21675;SDS011;10999;51.332;9.458;2023-05-19T06:17:33;4.97;;;1.60;;
21675;SDS011;10999;51.332;9.458;2023-05-19T06:20:02;7.60;;;1.80;;
21675;SDS011;10999;51.332;9.458;2023-05-19T06:22:33;4.68;;;1.70;;
21675;SDS011;10999;51.332;9.458;2023-05-19T06:25:00;5.18;;;1.60;;
21675;SDS011;10999;51.332;9.458;2023-05-19T06:27:27;3.10;;;1.30;;
21675;SDS011;10999;51.332;9.458;2023-05-19T06:29:54;8.00;;;1.60;;
21675;SDS011;10999;51.332;9.458;2023-05-19T06:32:20;9.20;;;1.75;;
21675;SDS011;10999;51.332;9.458;2023-05-19T06:34:47;6.45;;;1.52;;
21675;SDS011;10999;51.332;9.458;2023-05-19T06:37:20;4.50;;;1.80;;
21675;SDS011;10999;51.332;9.458;2023-05-19T06:39:48;5.60;;;1.70;;
21675;SDS011;10999;51.332;9.458;2023-05-19T06:42:19;4.68;;;1.77;;
21675;SDS011;10999;51.332;9.458;2023-05-19T06:44:51;5.78;;;2.17;;
21675;SDS011;10999;51.332;9.458;2023-05-19T06:47:18;6.40;;;1.85;;
21675;SDS011;10999;51.332;9.458;2023-05-19T06:49:45;3.78;;;1.77;;
21675;SDS011;10999;51.332;9.458;2023-05-19T06:52:15;4.40;;;1.65;;
21675;SDS011;10999;51.332;9.458;2023-05-19T06:54:42;4.45;;;1.55;;
21675;SDS011;10999;51.332;9.458;2023-05-19T06:57:09;5.15;;;1.73;;
21675;SDS011;10999;51.332;9.458;2023-05-19T06:59:36;7.32;;;1.70;;
21675;SDS011;10999;51.332;9.458;2023-05-19T07:02:06;5.22;;;1.60;;
21675;SDS011;10999;51.332;9.458;2023-05-19T07:04:33;6.55;;;1.75;;
21675;SDS011;10999;51.332;9.458;2023-05-19T07:07:01;5.72;;;1.67;;
21675;SDS011;10999;51.332;9.458;2023-05-19T07:09:28;5.32;;;1.85;;
21675;SDS011;10999;51.332;9.458;2023-05-19T07:11:55;6.97;;;1.63;;
21675;SDS011;10999;51.332;9.458;2023-05-19T07:14:22;6.20;;;1.55;;
21675;SDS011;10999;51.332;9.458;2023-05-19T07:16:49;5.35;;;1.58;;
21675;SDS011;10999;51.332;9.458;2023-05-19T07:19:15;6.68;;;1.92;;
21675;SDS011;10999;51.332;9.458;2023-05-19T07:21:45;5.70;;;1.50;;
21675;SDS011;10999;51.332;9.458;2023-05-19T07:24:12;5.10;;;1.50;;
21675;SDS011;10999;51.332;9.458;2023-05-19T07:26:39;7.32;;;1.98;;
21675;SDS011;10999;51.332;9.458;2023-05-19T07:29:06;5.63;;;1.73;;
21675;SDS011;10999;51.332;9.458;2023-05-19T07:31:33;5.78;;;1.65;;
21675;SDS011;10999;51.332;9.458;2023-05-19T07:33:59;5.85;;;1.80;;
21675;SDS011;10999;51.332;9.458;2023-05-19T07:36:26;8.73;;;1.92;;
21675;SDS011;10999;51.332;9.458;2023-05-19T07:38:53;5.50;;;1.50;;
21675;SDS011;10999;51.332;9.458;2023-05-19T07:41:20;6.28;;;1.42;;
21675;SDS011;10999;51.332;9.458;2023-05-19T07:43:48;5.50;;;1.90;;
21675;SDS011;10999;51.332;9.458;2023-05-19T07:46:15;7.85;;;2.00;;
21675;SDS011;10999;51.332;9.458;2023-05-19T07:48:42;5.25;;;1.40;;
21675;SDS011;10999;51.332;9.458;2023-05-19T07:51:09;6.05;;;1.60;;
21675;SDS011;10999;51.332;9.458;2023-05-19T07:53:37;5.55;;;1.20;;
21675;SDS011;10999;51.332;9.458;2023-05-19T07:56:04;5.53;;;1.55;;
21675;SDS011;10999;51.332;9.458;2023-05-19T07:58:31;5.38;;;1.50;;
21675;SDS011;10999;51.332;9.458;2023-05-19T08:00:58;6.00;;;1.58;;
21675;SDS011;10999;51.332;9.458;2023-05-19T08:03:25;5.20;;;2.10;;
21675;SDS011;10999;51.332;9.458;2023-05-19T08:05:52;5.47;;;1.33;;
21675;SDS011;10999;51.332;9.458;2023-05-19T08:08:19;6.55;;;1.20;;
21675;SDS011;10999;51.332;9.458;2023-05-19T08:10:47;3.92;;;1.35;;
21675;SDS011;10999;51.332;9.458;2023-05-19T08:13:13;5.05;;;1.30;;
21675;SDS011;10999;51.332;9.458;2023-05-19T08:15:40;6.50;;;1.23;;
21675;SDS011;10999;51.332;9.458;2023-05-19T08:18:08;4.32;;;1.33;;
21675;SDS011;10999;51.332;9.458;2023-05-19T08:20:34;7.05;;;1.63;;
21675;SDS011;10999;51.332;9.458;2023-05-19T08:23:01;6.03;;;1.48;;
21675;SDS011;10999;51.332;9.458;2023-05-19T08:25:28;5.47;;;1.35;;
21675;SDS011;10999;51.332;9.458;2023-05-19T08:27:55;5.97;;;1.75;;
21675;SDS011;10999;51.332;9.458;2023-05-19T08:30:22;5.53;;;1.38;;
21675;SDS011;10999;51.332;9.458;2023-05-19T08:32:49;4.43;;;1.48;;
21675;SDS011;10999;51.332;9.458;2023-05-19T08:35:16;5.30;;;1.50;;
21675;SDS011;10999;51.332;9.458;2023-05-19T08:37:43;4.88;;;1.50;;
21675;SDS011;10999;51.332;9.458;2023-05-19T08:40:10;4.20;;;1.30;;
21675;SDS011;10999;51.332;9.458;2023-05-19T08:42:43;4.03;;;1.10;;
21675;SDS011;10999;51.332;9.458;2023-05-19T08:45:11;3.08;;;1.50;;
21675;SDS011;10999;51.332;9.458;2023-05-19T08:47:41;5.35;;;1.70;;
21675;SDS011;10999;51.332;9.458;2023-05-19T08:50:14;6.00;;;1.65;;
21675;SDS011;10999;51.332;9.458;2023-05-19T08:52:48;6.25;;;2.38;;
21675;SDS011;10999;51.332;9.458;2023-05-19T08:55:33;4.75;;;1.60;;
21675;SDS011;10999;51.332;9.458;2023-05-19T08:58:07;5.43;;;1.63;;
21675;SDS011;10999;51.332;9.458;2023-05-19T09:00:34;5.93;;;1.80;;
21675;SDS011;10999;51.332;9.458;2023-05-19T09:03:02;4.70;;;2.33;;
21675;SDS011;10999;51.332;9.458;2023-05-19T09:05:48;6.53;;;2.05;;
21675;SDS011;10999;51.332;9.458;2023-05-19T09:08:16;5.50;;;1.63;;
21675;SDS011;10999;51.332;9.458;2023-05-19T09:10:43;6.97;;;1.77;;
21675;SDS011;10999;51.332;9.458;2023-05-19T09:13:10;5.22;;;1.60;;
21675;SDS011;10999;51.332;9.458;2023-05-19T09:15:37;4.35;;;1.75;;
21675;SDS011;10999;51.332;9.458;2023-05-19T09:18:07;7.50;;;1.80;;
21675;SDS011;10999;51.332;9.458;2023-05-19T09:20:38;6.20;;;1.80;;
21675;SDS011;10999;51.332;9.458;2023-05-19T09:23:05;4.60;;;1.58;;
21675;SDS011;10999;51.332;9.458;2023-05-19T09:25:33;5.93;;;1.75;;
21675;SDS011;10999;51.332;9.458;2023-05-19T09:28:01;4.60;;;1.52;;
21675;SDS011;10999;51.332;9.458;2023-05-19T09:30:28;5.18;;;1.38;;
21675;SDS011;10999;51.332;9.458;2023-05-19T09:32:55;4.60;;;2.05;;
21675;SDS011;10999;51.332;9.458;2023-05-19T09:35:22;6.97;;;1.75;;
21675;SDS011;10999;51.332;9.458;2023-05-19T09:37:49;4.95;;;1.30;;
21675;SDS011;10999;51.332;9.458;2023-05-19T09:40:16;5.70;;;1.55;;
21675;SDS011;10999;51.332;9.458;2023-05-19T09:42:43;3.78;;;1.20;;
21675;SDS011;10999;51.332;9.458;2023-05-19T09:45:09;5.55;;;1.70;;
21675;SDS011;10999;51.332;9.458;2023-05-19T09:47:37;4.55;;;1.60;;
21675;SDS011;10999;51.332;9.458;2023-05-19T09:50:06;4.93;;;1.40;;
21675;SDS011;10999;51.332;9.458;2023-05-19T09:52:35;5.28;;;2.10;;
21675;SDS011;10999;51.332;9.458;2023-05-19T09:55:02;5.20;;;1.25;;
21675;SDS011;10999;51.332;9.458;2023-05-19T09:57:39;5.13;;;1.58;;
21675;SDS011;10999;51.332;9.458;2023-05-19T10:00:07;4.00;;;2.00;;
21675;SDS011;10999;51.332;9.458;2023-05-19T10:02:45;4.57;;;1.48;;
21675;SDS011;10999;51.332;9.458;2023-05-19T10:05:13;5.45;;;1.80;;
21675;SDS011;10999;51.332;9.458;2023-05-19T10:07:55;3.75;;;1.17;;
21675;SDS011;10999;51.332;9.458;2023-05-19T10:10:22;3.65;;;1.25;;
21675;SDS011;10999;51.332;9.458;2023-05-19T10:12:49;5.03;;;1.65;;
21675;SDS011;10999;51.332;9.458;2023-05-19T10:15:17;2.47;;;1.20;;
21675;SDS011;10999;51.332;9.458;2023-05-19T10:17:48;3.03;;;1.25;;
21675;SDS011;10999;51.332;9.458;2023-05-19T10:20:16;5.53;;;1.35;;
21675;SDS011;10999;51.332;9.458;2023-05-19T10:22:43;6.78;;;1.63;;
21675;SDS011;10999;51.332;9.458;2023-05-19T10:25:11;4.13;;;1.30;;
21675;SDS011;10999;51.332;9.458;2023-05-19T10:27:44;4.75;;;1.40;;
21675;SDS011;10999;51.332;9.458;2023-05-19T10:30:16;4.70;;;1.60;;
21675;SDS011;10999;51.332;9.458;2023-05-19T10:32:47;2.55;;;0.95;;
21675;SDS011;10999;51.332;9.458;2023-05-19T10:38:38;4.60;;;1.40;;
21675;SDS011;10999;51.332;9.458;2023-05-19T10:41:17;2.55;;;1.10;;
21675;SDS011;10999;51.332;9.458;2023-05-19T10:46:45;4.32;;;1.20;;
21675;SDS011;10999;51.332;9.458;2023-05-19T10:49:19;4.15;;;1.42;;
21675;SDS011;10999;51.332;9.458;2023-05-19T10:51:47;3.92;;;1.48;;
21675;SDS011;10999;51.332;9.458;2023-05-19T10:54:14;2.83;;;1.00;;
21675;SDS011;10999;51.332;9.458;2023-05-19T10:56:43;2.47;;;1.20;;
21675;SDS011;10999;51.332;9.458;2023-05-19T10:59:32;4.47;;;1.10;;
21675;SDS011;10999;51.332;9.458;2023-05-19T11:02:03;4.68;;;1.65;;
21675;SDS011;10999;51.332;9.458;2023-05-19T11:04:38;3.10;;;1.17;;
21675;SDS011;10999;51.332;9.458;2023-05-19T11:07:16;4.95;;;1.30;;
21675;SDS011;10999;51.332;9.458;2023-05-19T11:09:48;4.50;;;1.20;;
21675;SDS011;10999;51.332;9.458;2023-05-19T11:12:19;3.20;;;1.20;;
21675;SDS011;10999;51.332;9.458;2023-05-19T11:14:53;3.35;;;0.90;;
21675;SDS011;10999;51.332;9.458;2023-05-19T11:17:23;3.63;;;1.10;;
21675;SDS011;10999;51.332;9.458;2023-05-19T11:19:51;3.17;;;1.00;;
21675;SDS011;10999;51.332;9.458;2023-05-19T11:22:23;2.92;;;1.00;;
21675;SDS011;10999;51.332;9.458;2023-05-19T11:24:53;3.38;;;1.52;;
21675;SDS011;10999;51.332;9.458;2023-05-19T11:29:57;3.20;;;1.45;;
21675;SDS011;10999;51.332;9.458;2023-05-19T11:32:27;5.82;;;1.20;;
21675;SDS011;10999;51.332;9.458;2023-05-19T11:34:55;3.30;;;1.10;;
21675;SDS011;10999;51.332;9.458;2023-05-19T11:37:23;4.00;;;1.23;;
21675;SDS011;10999;51.332;9.458;2023-05-19T11:39:50;4.63;;;1.50;;
21675;SDS011;10999;51.332;9.458;2023-05-19T11:42:18;5.45;;;1.10;;
21675;SDS011;10999;51.332;9.458;2023-05-19T11:44:45;5.25;;;1.58;;
21675;SDS011;10999;51.332;9.458;2023-05-19T11:47:12;3.35;;;1.20;;
21675;SDS011;10999;51.332;9.458;2023-05-19T11:49:43;3.05;;;1.10;;
21675;SDS011;10999;51.332;9.458;2023-05-19T11:52:13;4.22;;;1.25;;
21675;SDS011;10999;51.332;9.458;2023-05-19T11:54:40;3.25;;;1.13;;
21675;SDS011;10999;51.332;9.458;2023-05-19T11:57:09;3.65;;;1.10;;
21675;SDS011;10999;51.332;9.458;2023-05-19T11:59:39;3.47;;;0.98;;
21675;SDS011;10999;51.332;9.458;2023-05-19T12:04:40;2.78;;;1.08;;
21675;SDS011;10999;51.332;9.458;2023-05-19T12:07:07;2.95;;;1.08;;
21675;SDS011;10999;51.332;9.458;2023-05-19T12:09:35;2.10;;;0.98;;
21675;SDS011;10999;51.332;9.458;2023-05-19T12:12:02;4.70;;;1.20;;
21675;SDS011;10999;51.332;9.458;2023-05-19T12:14:29;3.70;;;1.10;;
21675;SDS011;10999;51.332;9.458;2023-05-19T12:16:56;3.88;;;1.10;;
21675;SDS011;10999;51.332;9.458;2023-05-19T12:19:23;4.25;;;1.10;;
21675;SDS011;10999;51.332;9.458;2023-05-19T12:21:51;4.18;;;1.50;;
21675;SDS011;10999;51.332;9.458;2023-05-19T12:24:18;3.55;;;1.15;;
21675;SDS011;10999;51.332;9.458;2023-05-19T12:26:46;4.57;;;1.45;;
21675;SDS011;10999;51.332;9.458;2023-05-19T12:29:15;5.15;;;1.38;;
21675;SDS011;10999;51.332;9.458;2023-05-19T12:31:44;3.33;;;1.17;;
21675;SDS011;10999;51.332;9.458;2023-05-19T12:34:12;3.28;;;0.85;;
21675;SDS011;10999;51.332;9.458;2023-05-19T12:36:39;4.57;;;1.40;;
21675;SDS011;10999;51.332;9.458;2023-05-19T12:39:06;3.83;;;1.20;;
21675;SDS011;10999;51.332;9.458;2023-05-19T12:41:34;4.13;;;1.00;;
21675;SDS011;10999;51.332;9.458;2023-05-19T12:44:01;3.45;;;1.00;;
21675;SDS011;10999;51.332;9.458;2023-05-19T12:46:42;5.10;;;1.50;;
21675;SDS011;10999;51.332;9.458;2023-05-19T12:49:09;2.50;;;1.00;;
21675;SDS011;10999;51.332;9.458;2023-05-19T12:51:37;4.07;;;1.38;;
21675;SDS011;10999;51.332;9.458;2023-05-19T12:54:04;2.28;;;0.98;;
21675;SDS011;10999;51.332;9.458;2023-05-19T12:56:31;2.20;;;1.00;;
21675;SDS011;10999;51.332;9.458;2023-05-19T12:58:59;2.90;;;1.00;;
21675;SDS011;10999;51.332;9.458;2023-05-19T13:01:27;3.50;;;1.25;;
21675;SDS011;10999;51.332;9.458;2023-05-19T13:03:55;2.75;;;0.93;;
21675;SDS011;10999;51.332;9.458;2023-05-19T13:06:22;2.90;;;1.10;;
21675;SDS011;10999;51.332;9.458;2023-05-19T13:08:49;4.00;;;1.00;;
21675;SDS011;10999;51.332;9.458;2023-05-19T13:11:15;3.35;;;1.20;;
21675;SDS011;10999;51.332;9.458;2023-05-19T13:13:42;4.43;;;1.27;;
21675;SDS011;10999;51.332;9.458;2023-05-19T13:16:09;3.60;;;1.27;;
21675;SDS011;10999;51.332;9.458;2023-05-19T13:18:36;4.45;;;1.30;;
21675;SDS011;10999;51.332;9.458;2023-05-19T13:21:03;2.90;;;1.10;;
21675;SDS011;10999;51.332;9.458;2023-05-19T13:23:30;4.47;;;0.95;;
21675;SDS011;10999;51.332;9.458;2023-05-19T13:25:57;3.10;;;1.00;;
21675;SDS011;10999;51.332;9.458;2023-05-19T13:28:24;3.03;;;0.85;;
21675;SDS011;10999;51.332;9.458;2023-05-19T13:30:51;2.97;;;0.90;;
21675;SDS011;10999;51.332;9.458;2023-05-19T13:33:18;4.80;;;1.10;;
21675;SDS011;10999;51.332;9.458;2023-05-19T13:35:47;3.40;;;1.08;;
21675;SDS011;10999;51.332;9.458;2023-05-19T13:38:14;4.20;;;1.10;;
21675;SDS011;10999;51.332;9.458;2023-05-19T13:40:41;6.97;;;1.30;;
21675;SDS011;10999;51.332;9.458;2023-05-19T13:43:09;5.82;;;1.10;;
21675;SDS011;10999;51.332;9.458;2023-05-19T13:45:35;3.45;;;2.00;;
21675;SDS011;10999;51.332;9.458;2023-05-19T13:48:03;3.17;;;1.25;;
21675;SDS011;10999;51.332;9.458;2023-05-19T13:50:32;2.53;;;1.27;;
21675;SDS011;10999;51.332;9.458;2023-05-19T13:52:59;3.78;;;1.17;;
21675;SDS011;10999;51.332;9.458;2023-05-19T13:55:26;3.53;;;1.20;;
21675;SDS011;10999;51.332;9.458;2023-05-19T13:57:52;3.05;;;1.00;;
21675;SDS011;10999;51.332;9.458;2023-05-19T14:00:19;2.42;;;0.90;;
21675;SDS011;10999;51.332;9.458;2023-05-19T14:02:46;3.47;;;1.02;;
21675;SDS011;10999;51.332;9.458;2023-05-19T14:05:13;5.18;;;1.27;;
21675;SDS011;10999;51.332;9.458;2023-05-19T14:07:40;6.85;;;1.10;;
21675;SDS011;10999;51.332;9.458;2023-05-19T14:10:07;6.28;;;1.30;;
21675;SDS011;10999;51.332;9.458;2023-05-19T14:12:34;4.78;;;1.13;;
21675;SDS011;10999;51.332;9.458;2023-05-19T14:15:21;2.92;;;0.98;;
21675;SDS011;10999;51.332;9.458;2023-05-19T14:17:48;6.50;;;1.42;;
21675;SDS011;10999;51.332;9.458;2023-05-19T14:20:15;3.63;;;1.05;;
21675;SDS011;10999;51.332;9.458;2023-05-19T14:22:42;3.45;;;1.02;;
21675;SDS011;10999;51.332;9.458;2023-05-19T14:25:09;4.10;;;1.00;;
21675;SDS011;10999;51.332;9.458;2023-05-19T14:27:36;3.10;;;1.02;;
21675;SDS011;10999;51.332;9.458;2023-05-19T14:30:05;2.92;;;0.98;;
21675;SDS011;10999;51.332;9.458;2023-05-19T14:32:32;3.25;;;1.10;;
21675;SDS011;10999;51.332;9.458;2023-05-19T14:34:59;4.25;;;0.95;;
21675;SDS011;10999;51.332;9.458;2023-05-19T14:37:26;3.92;;;1.30;;
21675;SDS011;10999;51.332;9.458;2023-05-19T14:39:54;2.83;;;1.30;;
21675;SDS011;10999;51.332;9.458;2023-05-19T14:42:22;3.45;;;1.30;;
21675;SDS011;10999;51.332;9.458;2023-05-19T14:44:49;4.13;;;1.20;;
21675;SDS011;10999;51.332;9.458;2023-05-19T14:47:16;4.97;;;1.27;;
21675;SDS011;10999;51.332;9.458;2023-05-19T14:49:43;3.13;;;1.13;;
21675;SDS011;10999;51.332;9.458;2023-05-19T14:52:09;2.97;;;0.90;;
21675;SDS011;10999;51.332;9.458;2023-05-19T14:54:36;3.28;;;1.00;;
21675;SDS011;10999;51.332;9.458;2023-05-19T14:57:03;3.22;;;1.33;;
21675;SDS011;10999;51.332;9.458;2023-05-19T14:59:35;9.13;;;1.88;;
21675;SDS011;10999;51.332;9.458;2023-05-19T15:02:02;4.07;;;1.30;;
21675;SDS011;10999;51.332;9.458;2023-05-19T15:04:30;3.45;;;1.25;;
21675;SDS011;10999;51.332;9.458;2023-05-19T15:06:57;4.93;;;1.30;;
21675;SDS011;10999;51.332;9.458;2023-05-19T15:09:30;3.67;;;1.40;;
21675;SDS011;10999;51.332;9.458;2023-05-19T15:11:57;3.83;;;1.20;;
21675;SDS011;10999;51.332;9.458;2023-05-19T15:14:26;5.10;;;1.40;;
21675;SDS011;10999;51.332;9.458;2023-05-19T15:16:56;2.30;;;1.02;;
21675;SDS011;10999;51.332;9.458;2023-05-19T15:19:23;2.88;;;1.10;;
21675;SDS011;10999;51.332;9.458;2023-05-19T15:21:50;5.03;;;1.20;;